Time;durP1;ratioP1;P1;durP2;ratioP2;P2;SDS_P1;SDS_P2;PMS_P1;PMS_P2;Temp;Humidity;BMP_temperature;BMP_pressure;BME280_temperature;BME280_humidity;BME280_pressure;Samples;Min_cycle;Max_cycle;Signal;HPM_P1;HPM_P2
2022/06/11 00:01:02;;;;;;;;;;;19.00;70.80;;;;;;5045774;28;87486;-47
2022/06/11 00:03:27;;;;;;;;;;;19.00;71.00;;;;;;5045538;28;87102;-48
2022/06/11 00:05:53;;;;;;;;;;;18.90;70.90;;;;;;5045013;28;87628;-47
2022/06/11 00:08:19;;;;;;;;;;;19.00;71.00;;;;;;5045348;28;87071;-47
2022/06/11 00:10:44;;;;;;;;;;;18.90;70.90;;;;;;5047475;27;87368;-48
2022/06/11 00:13:10;;;;;;;;;;;19.00;70.90;;;;;;5045690;28;86478;-47
2022/06/11 00:15:36;;;;;;;;;;;19.00;71.00;;;;;;5045094;28;87129;-46
2022/06/11 00:18:03;;;;;;;;;;;19.00;71.00;;;;;;5044865;28;88055;-49
2022/06/11 00:20:30;;;;;;;;;;;18.90;71.00;;;;;;5043823;28;88425;-47
2022/06/11 00:22:55;;;;;;;;;;;18.90;70.90;;;;;;5044761;27;87513;-49
2022/06/11 00:25:21;;;;;;;;;;;18.90;71.10;;;;;;5044575;28;87799;-47
2022/06/11 00:27:47;;;;;;;;;;;18.90;71.00;;;;;;5044945;28;87120;-47
2022/06/11 00:30:13;;;;;;;;;;;18.90;71.00;;;;;;5047198;27;89336;-49
2022/06/11 00:32:39;;;;;;;;;;;18.90;70.90;;;;;;5044649;28;87097;-47
2022/06/11 00:35:05;;;;;;;;;;;18.90;71.00;;;;;;5044717;27;87070;-47
2022/06/11 00:37:31;;;;;;;;;;;18.90;71.50;;;;;;5044910;28;86945;-46
2022/06/11 00:39:57;;;;;;;;;;;18.80;71.00;;;;;;5044549;28;87170;-49
2022/06/11 00:42:24;;;;;;;;;;;18.90;71.70;;;;;;5044656;28;87417;-46
2022/06/11 00:45:12;;;;;;;;;;;18.80;71.20;;;;;;5043393;28;89140;-47
2022/06/11 00:47:37;;;;;;;;;;;18.80;71.10;;;;;;5044589;28;87062;-46
2022/06/11 00:50:14;;;;;;;;;;;18.80;71.20;;;;;;5044481;27;87362;-47
2022/06/11 00:52:43;;;;;;;;;;;18.80;71.20;;;;;;5047171;28;87984;-46
2022/06/11 00:55:21;;;;;;;;;;;18.80;71.20;;;;;;5044622;27;87613;-47
2022/06/11 00:57:52;;;;;;;;;;;18.80;71.20;;;;;;5044276;28;88202;-47
2022/06/11 01:00:29;;;;;;;;;;;18.80;71.20;;;;;;5044214;28;87069;-48
2022/06/11 01:02:55;;;;;;;;;;;18.80;71.20;;;;;;5044950;28;87488;-49
2022/06/11 01:05:25;;;;;;;;;;;18.80;71.10;;;;;;5043752;28;89338;-48
2022/06/11 01:08:10;;;;;;;;;;;18.80;71.10;;;;;;5044188;28;87122;-48
2022/06/11 01:10:45;;;;;;;;;;;18.80;71.30;;;;;;5043848;27;88090;-46
2022/06/11 01:13:10;;;;;;;;;;;18.80;71.10;;;;;;5043608;28;89492;-47
2022/06/11 01:15:45;;;;;;;;;;;18.70;71.30;;;;;;5046972;28;87198;-47
2022/06/11 01:18:10;;;;;;;;;;;18.70;71.20;;;;;;5043839;28;88093;-49
2022/06/11 01:20:42;;;;;;;;;;;18.70;71.10;;;;;;5044025;28;87138;-47
2022/06/11 01:23:11;;;;;;;;;;;18.70;71.50;;;;;;5044158;28;87125;-48
2022/06/11 01:25:55;;;;;;;;;;;18.70;71.20;;;;;;5043341;28;89226;-48
2022/06/11 01:28:39;;;;;;;;;;;18.70;71.10;;;;;;5043020;28;86445;-50
2022/06/11 01:31:10;;;;;;;;;;;18.70;71.20;;;;;;5043990;27;87031;-47
2022/06/11 01:33:44;;;;;;;;;;;18.70;71.30;;;;;;5042821;27;88156;-47
2022/06/11 01:36:10;;;;;;;;;;;18.70;71.40;;;;;;5042743;27;88106;-47
2022/06/11 01:38:41;;;;;;;;;;;18.70;71.30;;;;;;5046304;27;88285;-47
2022/06/11 01:41:06;;;;;;;;;;;18.70;71.40;;;;;;5043687;28;87135;-46
2022/06/11 01:43:35;;;;;;;;;;;18.70;71.70;;;;;;5043590;28;86851;-48
2022/06/11 01:46:03;;;;;;;;;;;18.70;71.70;;;;;;5043188;28;89375;-46
2022/06/11 01:48:29;;;;;;;;;;;18.60;71.50;;;;;;5043294;28;87102;-47
2022/06/11 01:51:13;;;;;;;;;;;18.70;71.80;;;;;;5043723;27;87262;-46
2022/06/11 01:53:51;;;;;;;;;;;18.60;71.70;;;;;;5043601;27;88527;-46
2022/06/11 01:56:20;;;;;;;;;;;18.60;71.80;;;;;;5043918;28;86771;-51
2022/06/11 01:59:00;;;;;;;;;;;18.70;71.90;;;;;;5043312;28;87423;-46
2022/06/11 02:01:32;;;;;;;;;;;18.60;71.80;;;;;;5045492;28;89028;-47
2022/06/11 02:03:57;;;;;;;;;;;18.60;72.00;;;;;;5043347;28;88202;-47
2022/06/11 02:06:33;;;;;;;;;;;18.60;71.80;;;;;;5043123;28;88176;-45
2022/06/11 02:09:18;;;;;;;;;;;18.60;71.90;;;;;;5043384;28;87002;-47
2022/06/11 02:11:45;;;;;;;;;;;18.60;72.00;;;;;;5042539;28;87953;-50
2022/06/11 02:14:29;;;;;;;;;;;18.60;72.00;;;;;;5043050;28;88221;-48
2022/06/11 02:16:57;;;;;;;;;;;18.60;72.10;;;;;;5041757;28;87399;-50
2022/06/11 02:19:30;;;;;;;;;;;18.50;72.00;;;;;;5043594;27;86603;-50
2022/06/11 02:21:59;;;;;;;;;;;18.50;72.10;;;;;;5042215;28;87952;-46
2022/06/11 02:24:35;;;;;;;;;;;18.60;72.10;;;;;;5045875;28;87619;-46
2022/06/11 02:27:03;;;;;;;;;;;18.60;71.90;;;;;;5042135;28;89133;-47
2022/06/11 02:29:31;;;;;;;;;;;18.60;71.90;;;;;;5042630;28;87003;-47
2022/06/11 02:31:58;;;;;;;;;;;18.60;71.90;;;;;;5043005;28;89217;-48
2022/06/11 02:34:25;;;;;;;;;;;18.50;72.10;;;;;;5042408;28;88159;-47
2022/06/11 02:36:56;;;;;;;;;;;18.60;72.00;;;;;;5043127;28;87166;-45
2022/06/11 02:39:22;;;;;;;;;;;18.60;72.20;;;;;;5042843;27;87416;-45
2022/06/11 02:41:48;;;;;;;;;;;18.50;72.20;;;;;;5042648;28;89250;-48
2022/06/11 02:44:14;;;;;;;;;;;18.50;72.10;;;;;;5046378;28;86384;-46
2022/06/11 02:46:41;;;;;;;;;;;18.50;72.20;;;;;;5041303;28;88188;-48
2022/06/11 02:49:08;;;;;;;;;;;18.50;72.20;;;;;;5042580;28;87146;-47
2022/06/11 02:51:33;;;;;;;;;;;18.50;72.10;;;;;;5042012;28;87965;-48
2022/06/11 02:53:59;;;;;;;;;;;18.50;72.00;;;;;;5042548;28;87917;-46
2022/06/11 02:56:25;;;;;;;;;;;18.50;72.00;;;;;;5042813;28;87107;-48
2022/06/11 02:58:51;;;;;;;;;;;18.50;72.00;;;;;;5042875;28;86851;-48
2022/06/11 03:01:16;;;;;;;;;;;18.50;71.90;;;;;;5042363;28;88181;-46
2022/06/11 03:03:42;;;;;;;;;;;18.50;72.20;;;;;;5042394;28;87125;-46
2022/06/11 03:06:08;;;;;;;;;;;18.50;72.00;;;;;;5045083;28;87352;-47
2022/06/11 03:08:33;;;;;;;;;;;18.50;72.20;;;;;;5042706;28;86380;-46
2022/06/11 03:10:59;;;;;;;;;;;18.40;71.90;;;;;;5041801;27;88132;-46
2022/06/11 03:13:25;;;;;;;;;;;18.50;71.80;;;;;;5042345;28;87981;-46
2022/06/11 03:15:51;;;;;;;;;;;18.40;71.90;;;;;;5042021;28;88177;-47
2022/06/11 03:18:16;;;;;;;;;;;18.50;72.00;;;;;;5042298;28;88234;-47
2022/06/11 03:20:43;;;;;;;;;;;18.50;72.00;;;;;;5042002;28;88133;-47
2022/06/11 03:23:08;;;;;;;;;;;18.50;71.80;;;;;;5042417;28;87057;-46
2022/06/11 03:25:35;;;;;;;;;;;18.50;71.80;;;;;;5042397;27;87185;-46
2022/06/11 03:28:12;;;;;;;;;;;18.50;71.90;;;;;;5044546;28;90404;-47
2022/06/11 03:30:38;;;;;;;;;;;18.40;71.80;;;;;;5042439;27;87334;-47
2022/06/11 03:33:04;;;;;;;;;;;18.40;72.00;;;;;;5042452;28;86443;-47
2022/06/11 03:35:29;;;;;;;;;;;18.40;72.00;;;;;;5042285;28;87015;-48
2022/06/11 03:37:56;;;;;;;;;;;18.40;71.80;;;;;;5042180;28;87487;-46
2022/06/11 03:40:21;;;;;;;;;;;18.40;72.00;;;;;;5041110;28;88933;-46
2022/06/11 03:42:47;;;;;;;;;;;18.40;72.10;;;;;;5041978;28;88110;-45
2022/06/11 03:45:13;;;;;;;;;;;18.40;71.90;;;;;;5042174;28;87382;-47
2022/06/11 03:47:40;;;;;;;;;;;18.40;71.90;;;;;;5041673;28;87994;-50
2022/06/11 03:50:07;;;;;;;;;;;18.40;71.90;;;;;;5044687;28;87155;-49
2022/06/11 03:52:33;;;;;;;;;;;18.40;72.00;;;;;;5041276;28;89711;-46
2022/06/11 03:54:58;;;;;;;;;;;18.40;71.80;;;;;;5041879;28;87139;-47
2022/06/11 03:57:25;;;;;;;;;;;18.40;71.80;;;;;;5044257;27;87474;-46
2022/06/11 03:59:51;;;;;;;;;;;18.40;71.70;;;;;;5044763;28;89560;-46
2022/06/11 04:02:17;;;;;;;;;;;18.40;72.10;;;;;;5044947;28;87067;-47
2022/06/11 04:04:42;;;;;;;;;;;18.40;72.00;;;;;;5044843;28;88003;-45
2022/06/11 04:07:09;;;;;;;;;;;18.40;72.20;;;;;;5045039;28;88035;-47
2022/06/11 04:09:37;;;;;;;;;;;18.40;72.30;;;;;;5045222;28;87146;-47
2022/06/11 04:12:04;;;;;;;;;;;18.30;71.80;;;;;;5047326;28;88475;-46
2022/06/11 04:14:29;;;;;;;;;;;18.30;71.70;;;;;;5045303;28;87141;-46
2022/06/11 04:17:01;;;;;;;;;;;18.40;71.80;;;;;;5045012;28;87475;-47
2022/06/11 04:19:28;;;;;;;;;;;18.40;72.00;;;;;;5044898;28;88130;-47
2022/06/11 04:21:55;;;;;;;;;;;18.40;71.80;;;;;;5045451;28;86383;-46
2022/06/11 04:24:21;;;;;;;;;;;18.30;71.80;;;;;;5044953;27;86956;-46
2022/06/11 04:26:48;;;;;;;;;;;18.30;71.80;;;;;;5044753;28;88042;-46
2022/06/11 04:29:16;;;;;;;;;;;18.30;71.90;;;;;;5044118;28;88079;-48
2022/06/11 04:31:42;;;;;;;;;;;18.30;71.80;;;;;;5047026;27;89818;-46
2022/06/11 04:34:08;;;;;;;;;;;18.30;71.90;;;;;;5044939;28;87078;-47
2022/06/11 04:36:34;;;;;;;;;;;18.30;71.90;;;;;;5044874;28;87228;-46
2022/06/11 04:39:00;;;;;;;;;;;18.30;72.00;;;;;;5044555;28;88147;-46
2022/06/11 04:41:26;;;;;;;;;;;18.30;72.10;;;;;;5044835;28;87073;-46
2022/06/11 04:43:52;;;;;;;;;;;18.30;72.00;;;;;;5044460;27;87497;-47
2022/06/11 04:46:18;;;;;;;;;;;18.30;72.10;;;;;;5044725;28;86485;-47
2022/06/11 04:48:44;;;;;;;;;;;18.30;71.90;;;;;;5044798;28;87036;-46
2022/06/11 04:51:10;;;;;;;;;;;18.30;71.90;;;;;;5044620;27;87291;-48
2022/06/11 04:53:36;;;;;;;;;;;18.30;72.20;;;;;;5046551;28;88926;-48
2022/06/11 04:56:01;;;;;;;;;;;18.30;72.20;;;;;;5044707;28;88562;-46
2022/06/11 04:58:28;;;;;;;;;;;18.30;72.10;;;;;;5044406;28;88118;-48
2022/06/11 05:00:54;;;;;;;;;;;18.30;72.30;;;;;;5044251;28;87042;-47
2022/06/11 05:03:19;;;;;;;;;;;18.30;72.20;;;;;;5044489;28;87763;-47
2022/06/11 05:05:45;;;;;;;;;;;18.30;72.00;;;;;;5043718;28;89346;-46
2022/06/11 05:08:11;;;;;;;;;;;18.30;72.50;;;;;;5043481;27;87137;-47
2022/06/11 05:10:37;;;;;;;;;;;18.20;72.40;;;;;;5044730;28;87530;-46
2022/06/11 05:13:03;;;;;;;;;;;18.20;72.50;;;;;;5043830;28;90092;-47
2022/06/11 05:15:29;;;;;;;;;;;18.20;72.50;;;;;;5046896;28;87130;-46
2022/06/11 05:17:54;;;;;;;;;;;18.20;72.60;;;;;;5043135;28;88779;-47
2022/06/11 05:20:20;;;;;;;;;;;18.20;72.50;;;;;;5043706;28;87158;-46
2022/06/11 05:22:46;;;;;;;;;;;18.30;72.40;;;;;;5044259;28;87472;-48
2022/06/11 05:25:13;;;;;;;;;;;18.20;72.50;;;;;;5043429;28;88462;-46
2022/06/11 05:27:40;;;;;;;;;;;18.20;72.40;;;;;;5043668;28;87450;-46
2022/06/11 05:30:20;;;;;;;;;;;18.20;72.50;;;;;;5043165;27;89099;-49
2022/06/11 05:32:46;;;;;;;;;;;18.20;72.60;;;;;;5043209;28;89387;-47
2022/06/11 05:35:14;;;;;;;;;;;18.20;72.30;;;;;;5044368;28;86788;-47
2022/06/11 05:37:40;;;;;;;;;;;18.20;72.70;;;;;;5046230;27;86988;-47
2022/06/11 05:40:06;;;;;;;;;;;18.10;72.50;;;;;;5043672;28;87104;-46
2022/06/11 05:42:31;;;;;;;;;;;18.10;72.70;;;;;;5042986;27;87908;-46
2022/06/11 05:44:57;;;;;;;;;;;18.20;72.30;;;;;;5043396;28;88515;-48
2022/06/11 05:47:24;;;;;;;;;;;18.20;72.50;;;;;;5043665;28;87035;-47
2022/06/11 05:49:51;;;;;;;;;;;18.10;72.80;;;;;;5043970;27;88212;-46
2022/06/11 05:52:19;;;;;;;;;;;18.20;72.60;;;;;;5043193;28;88242;-47
2022/06/11 05:54:46;;;;;;;;;;;18.10;72.80;;;;;;5043429;28;87119;-49
2022/06/11 05:57:13;;;;;;;;;;;18.10;72.80;;;;;;5043444;27;87782;-46
2022/06/11 05:59:43;;;;;;;;;;;18.20;72.80;;;;;;5046398;28;86547;-47
2022/06/11 06:02:10;;;;;;;;;;;18.20;72.10;;;;;;5043510;27;86997;-47
2022/06/11 06:04:38;;;;;;;;;;;18.20;72.30;;;;;;5043243;27;89142;-46
2022/06/11 06:07:05;;;;;;;;;;;18.20;72.40;;;;;;5042975;28;88478;-46
2022/06/11 06:09:30;;;;;;;;;;;18.20;72.60;;;;;;5042919;27;90058;-46
2022/06/11 06:11:56;;;;;;;;;;;18.20;72.50;;;;;;5042248;28;87918;-46
2022/06/11 06:14:21;;;;;;;;;;;18.20;72.40;;;;;;5043284;28;87041;-49
2022/06/11 06:16:47;;;;;;;;;;;18.10;72.70;;;;;;5043185;27;88413;-47
2022/06/11 06:19:12;;;;;;;;;;;18.10;72.50;;;;;;5042751;27;88143;-46
2022/06/11 06:21:38;;;;;;;;;;;18.10;72.70;;;;;;5045950;28;87201;-45
2022/06/11 06:24:04;;;;;;;;;;;18.10;72.70;;;;;;5043452;28;87368;-48
2022/06/11 06:26:30;;;;;;;;;;;18.10;72.50;;;;;;5042882;28;87099;-48
2022/06/11 06:28:56;;;;;;;;;;;18.10;72.70;;;;;;5042763;27;89052;-46
2022/06/11 06:31:21;;;;;;;;;;;18.10;72.70;;;;;;5041979;28;88955;-49
2022/06/11 06:33:47;;;;;;;;;;;18.10;72.50;;;;;;5043033;28;87115;-47
2022/06/11 06:36:14;;;;;;;;;;;18.10;72.80;;;;;;5043066;27;87163;-47
2022/06/11 06:38:39;;;;;;;;;;;18.10;72.70;;;;;;5042390;28;89654;-50
2022/06/11 06:41:05;;;;;;;;;;;18.10;72.80;;;;;;5045652;28;87249;-48
2022/06/11 06:43:31;;;;;;;;;;;18.10;72.70;;;;;;5042154;28;87953;-47
2022/06/11 06:45:57;;;;;;;;;;;18.10;72.60;;;;;;5042548;28;87022;-45
2022/06/11 06:48:22;;;;;;;;;;;18.10;72.50;;;;;;5043229;27;87378;-48
2022/06/11 06:50:48;;;;;;;;;;;18.10;72.50;;;;;;5042440;28;87991;-45
2022/06/11 06:53:13;;;;;;;;;;;18.10;72.70;;;;;;5042976;28;87039;-46
2022/06/11 06:55:39;;;;;;;;;;;18.10;72.90;;;;;;5042310;27;89108;-47
2022/06/11 06:58:05;;;;;;;;;;;18.10;72.60;;;;;;5042540;28;87994;-47
2022/06/11 07:00:31;;;;;;;;;;;18.10;72.50;;;;;;5042536;28;87110;-45
2022/06/11 07:02:56;;;;;;;;;;;18.10;72.50;;;;;;5044918;27;89203;-47
2022/06/11 07:05:23;;;;;;;;;;;18.10;73.00;;;;;;5042580;28;87150;-46
2022/06/11 07:07:49;;;;;;;;;;;18.10;72.60;;;;;;5042742;27;87364;-45
2022/06/11 07:10:15;;;;;;;;;;;18.10;72.50;;;;;;5042013;28;88232;-46
2022/06/11 07:12:41;;;;;;;;;;;18.10;72.90;;;;;;5042123;28;86367;-45
2022/06/11 07:15:06;;;;;;;;;;;18.20;72.80;;;;;;5042453;28;87006;-46
2022/06/11 07:17:34;;;;;;;;;;;18.10;72.50;;;;;;5042245;28;88119;-46
2022/06/11 07:20:06;;;;;;;;;;;18.10;72.50;;;;;;5041479;28;88117;-49
2022/06/11 07:22:36;;;;;;;;;;;18.10;72.50;;;;;;5042374;28;88884;-47
2022/06/11 07:25:03;;;;;;;;;;;18.10;72.50;;;;;;5044636;28;88027;-46
2022/06/11 07:27:32;;;;;;;;;;;18.10;72.70;;;;;;5042132;27;88768;-46
2022/06/11 07:29:59;;;;;;;;;;;18.10;72.40;;;;;;5041997;28;87924;-48
2022/06/11 07:32:26;;;;;;;;;;;18.20;72.80;;;;;;5043915;27;87106;-46
2022/06/11 07:34:52;;;;;;;;;;;18.20;72.50;;;;;;5045817;27;87564;-46
2022/06/11 07:37:18;;;;;;;;;;;18.20;72.20;;;;;;5045702;28;88389;-47
2022/06/11 07:39:43;;;;;;;;;;;18.10;72.30;;;;;;5045318;28;87138;-48
2022/06/11 07:42:10;;;;;;;;;;;18.20;72.50;;;;;;5045893;27;87492;-47
2022/06/11 07:44:36;;;;;;;;;;;18.20;72.50;;;;;;5044350;28;88154;-49
2022/06/11 07:47:02;;;;;;;;;;;18.20;72.20;;;;;;5048557;28;86996;-46
2022/06/11 07:49:27;;;;;;;;;;;18.20;72.40;;;;;;5045120;28;87682;-45
2022/06/11 07:51:54;;;;;;;;;;;18.20;72.50;;;;;;5045613;28;87217;-46
2022/06/11 07:54:20;;;;;;;;;;;18.20;72.50;;;;;;5045294;28;87385;-46
2022/06/11 07:56:45;;;;;;;;;;;18.20;72.30;;;;;;5045059;28;89223;-47
2022/06/11 07:59:11;;;;;;;;;;;18.20;72.10;;;;;;5045513;28;87086;-48
2022/06/11 08:01:37;;;;;;;;;;;18.20;72.10;;;;;;5046066;28;87410;-46
2022/06/11 08:04:02;;;;;;;;;;;18.20;72.20;;;;;;5045193;28;88026;-48
2022/06/11 08:06:28;;;;;;;;;;;18.30;72.20;;;;;;5045480;28;87150;-49
2022/06/11 08:08:54;;;;;;;;;;;18.30;72.40;;;;;;5047380;28;88832;-50
2022/06/11 08:11:19;;;;;;;;;;;18.30;72.10;;;;;;5044560;28;87771;-45
2022/06/11 08:13:46;;;;;;;;;;;18.30;72.00;;;;;;5045380;27;87455;-45
2022/06/11 08:16:12;;;;;;;;;;;18.40;72.10;;;;;;5044754;28;88002;-46
2022/06/11 08:18:38;;;;;;;;;;;18.30;72.40;;;;;;5045256;28;87299;-46
2022/06/11 08:21:03;;;;;;;;;;;18.30;72.50;;;;;;5045169;28;87417;-47
2022/06/11 08:23:29;;;;;;;;;;;18.30;72.60;;;;;;5044832;28;88074;-47
2022/06/11 08:25:56;;;;;;;;;;;18.30;72.60;;;;;;5045271;28;86292;-49
2022/06/11 08:28:22;;;;;;;;;;;18.30;73.00;;;;;;5044880;27;87929;-47
2022/06/11 08:30:47;;;;;;;;;;;18.30;72.90;;;;;;5047271;28;89473;-46
2022/06/11 08:33:13;;;;;;;;;;;18.30;73.10;;;;;;5043991;27;88713;-45
2022/06/11 08:35:39;;;;;;;;;;;18.30;72.90;;;;;;5044437;28;88168;-50
2022/06/11 08:38:05;;;;;;;;;;;18.40;73.10;;;;;;5044721;28;86906;-47
2022/06/11 08:40:33;;;;;;;;;;;18.40;73.20;;;;;;5044716;28;87409;-49
2022/06/11 08:43:10;;;;;;;;;;;18.40;72.70;;;;;;5044149;27;87142;-48
2022/06/11 08:45:38;;;;;;;;;;;18.40;73.10;;;;;;5044418;28;87126;-45
2022/06/11 08:48:10;;;;;;;;;;;18.40;73.00;;;;;;5044586;27;87307;-47
2022/06/11 08:50:39;;;;;;;;;;;18.40;73.00;;;;;;5047641;28;87141;-48
2022/06/11 08:53:05;;;;;;;;;;;18.40;73.00;;;;;;5044609;27;87052;-48
2022/06/11 08:55:35;;;;;;;;;;;18.40;73.10;;;;;;5044138;28;87677;-46
2022/06/11 08:58:19;;;;;;;;;;;18.40;72.90;;;;;;5043923;28;88024;-46
2022/06/11 09:00:52;;;;;;;;;;;18.40;73.00;;;;;;5044472;27;90107;-46
2022/06/11 09:03:17;;;;;;;;;;;18.40;73.20;;;;;;5044108;28;88222;-46
2022/06/11 09:05:48;;;;;;;;;;;18.40;73.00;;;;;;5044567;28;87019;-48
2022/06/11 09:08:22;;;;;;;;;;;18.40;73.00;;;;;;5044488;28;87660;-50
2022/06/11 09:10:50;;;;;;;;;;;18.50;73.10;;;;;;5043960;28;87403;-46
2022/06/11 09:13:16;;;;;;;;;;;18.40;73.20;;;;;;5047291;28;86915;-49
2022/06/11 09:15:53;;;;;;;;;;;18.50;73.20;;;;;;5044210;28;87606;-47
2022/06/11 09:18:19;;;;;;;;;;;18.50;73.10;;;;;;5044052;28;87120;-46
2022/06/11 09:21:03;;;;;;;;;;;18.40;73.10;;;;;;5044181;28;87036;-46
2022/06/11 09:23:34;;;;;;;;;;;18.50;73.10;;;;;;5043017;28;88742;-45
2022/06/11 09:26:14;;;;;;;;;;;18.50;73.00;;;;;;5043763;28;87101;-46
2022/06/11 09:28:48;;;;;;;;;;;18.50;72.90;;;;;;5043680;28;87515;-46
2022/06/11 09:31:21;;;;;;;;;;;18.60;73.00;;;;;;5043386;28;87189;-47
2022/06/11 09:34:07;;;;;;;;;;;18.50;73.10;;;;;;5043904;28;87068;-50
2022/06/11 09:36:36;;;;;;;;;;;18.50;73.20;;;;;;5045744;28;86985;-48
2022/06/11 09:39:02;;;;;;;;;;;18.50;73.10;;;;;;5043071;28;87117;-46
2022/06/11 09:41:39;;;;;;;;;;;18.50;73.20;;;;;;5043918;28;88914;-47
2022/06/11 09:44:12;;;;;;;;;;;18.50;73.30;;;;;;5043269;28;88187;-48
2022/06/11 09:46:41;;;;;;;;;;;18.50;73.70;;;;;;5043718;28;86998;-46
2022/06/11 09:49:07;;;;;;;;;;;18.50;73.20;;;;;;5042663;27;87959;-48
2022/06/11 09:51:44;;;;;;;;;;;18.50;73.60;;;;;;5042751;28;88368;-47
2022/06/11 09:54:22;;;;;;;;;;;18.50;73.40;;;;;;5043170;27;87021;-48
2022/06/11 09:56:52;;;;;;;;;;;18.50;73.40;;;;;;5043712;28;87445;-45
2022/06/11 09:59:24;;;;;;;;;;;18.50;73.00;;;;;;5045640;28;88539;-48
2022/06/11 10:01:55;;;;;;;;;;;18.50;73.80;;;;;;5043385;28;87025;-47
2022/06/11 10:04:32;;;;;;;;;;;18.40;72.90;;;;;;5042833;28;88092;-48
2022/06/11 10:07:06;;;;;;;;;;;18.40;73.10;;;;;;5043915;28;86415;-48
2022/06/11 10:09:35;;;;;;;;;;;18.40;73.70;;;;;;5043042;28;87088;-48
2022/06/11 10:12:14;;;;;;;;;;;18.40;74.00;;;;;;5042120;28;88026;-48
2022/06/11 10:14:50;;;;;;;;;;;18.40;73.90;;;;;;5042692;28;87859;-47
2022/06/11 10:17:16;;;;;;;;;;;18.40;73.60;;;;;;5043155;27;88358;-51
2022/06/11 10:19:41;;;;;;;;;;;18.40;73.40;;;;;;5042700;28;88077;-47
2022/06/11 10:22:14;;;;;;;;;;;18.30;73.70;;;;;;5045903;28;86951;-48
2022/06/11 10:24:42;;;;;;;;;;;18.30;73.90;;;;;;5042465;28;88098;-46
2022/06/11 10:27:13;;;;;;;;;;;18.30;73.50;;;;;;5042864;28;87169;-47
2022/06/11 10:29:46;;;;;;;;;;;18.30;74.00;;;;;;5043088;27;87423;-46
2022/06/11 10:32:11;;;;;;;;;;;18.30;73.90;;;;;;5043199;28;88583;-48
2022/06/11 10:34:39;;;;;;;;;;;18.30;73.90;;;;;;5043002;28;87117;-46
2022/06/11 10:37:10;;;;;;;;;;;18.30;74.30;;;;;;5042838;28;87532;-46
2022/06/11 10:39:42;;;;;;;;;;;18.40;73.90;;;;;;5041717;28;89352;-47
2022/06/11 10:42:20;;;;;;;;;;;18.30;74.00;;;;;;5043056;28;87120;-49
2022/06/11 10:44:47;;;;;;;;;;;18.30;74.70;;;;;;5045282;28;87230;-46
2022/06/11 10:47:13;;;;;;;;;;;18.30;74.30;;;;;;5042742;28;87091;-47
2022/06/11 10:49:39;;;;;;;;;;;18.30;74.00;;;;;;5042992;28;87388;-45
2022/06/11 10:52:13;;;;;;;;;;;18.30;74.00;;;;;;5042213;28;88073;-48
2022/06/11 10:54:40;;;;;;;;;;;18.30;74.10;;;;;;5042647;28;87006;-46
2022/06/11 10:57:12;;;;;;;;;;;18.30;74.40;;;;;;5043386;28;86553;-48
2022/06/11 10:59:41;;;;;;;;;;;18.30;74.70;;;;;;5042132;27;89307;-48
2022/06/11 11:02:25;;;;;;;;;;;18.30;74.40;;;;;;5042507;28;87102;-48
2022/06/11 11:05:09;;;;;;;;;;;18.30;74.80;;;;;;5044822;27;87931;-46
2022/06/11 11:07:41;;;;;;;;;;;18.40;74.70;;;;;;5044424;27;87125;-48
2022/06/11 11:10:17;;;;;;;;;;;18.40;74.60;;;;;;5046291;28;87273;-47
2022/06/11 11:12:43;;;;;;;;;;;18.40;74.60;;;;;;5045630;28;88118;-49
2022/06/11 11:15:09;;;;;;;;;;;18.40;74.80;;;;;;5045808;28;87004;-47
2022/06/11 11:17:34;;;;;;;;;;;18.40;74.50;;;;;;5046171;28;87287;-47
2022/06/11 11:20:36;;;;;;;;;;;18.40;74.80;;;;;;5045635;28;88180;-45
2022/06/11 11:23:05;;;;;;;;;;;18.40;74.60;;;;;;5046324;28;86280;-46
2022/06/11 11:25:36;;;;;;;;;;;18.40;74.60;;;;;;5045541;27;86964;-46
2022/06/11 11:28:03;;;;;;;;;;;18.40;74.60;;;;;;5048477;28;87967;-46
2022/06/11 11:30:31;;;;;;;;;;;18.40;74.60;;;;;;5045131;27;89626;-47
2022/06/11 11:33:10;;;;;;;;;;;18.40;74.80;;;;;;5045528;28;87997;-46
2022/06/11 11:35:40;;;;;;;;;;;18.40;74.60;;;;;;5045853;28;87008;-46
2022/06/11 11:38:20;;;;;;;;;;;18.40;74.80;;;;;;5045581;27;87342;-47
2022/06/11 11:40:48;;;;;;;;;;;18.50;74.60;;;;;;5045016;28;90724;-47
2022/06/11 11:43:15;;;;;;;;;;;18.50;74.80;;;;;;5045673;28;86931;-46
2022/06/11 11:45:43;;;;;;;;;;;18.50;74.80;;;;;;5045735;27;87112;-46
2022/06/11 11:48:11;;;;;;;;;;;18.50;74.60;;;;;;5045726;28;87410;-45
2022/06/11 11:50:39;;;;;;;;;;;18.50;74.50;;;;;;5048106;28;87217;-46
2022/06/11 11:53:19;;;;;;;;;;;18.50;74.50;;;;;;5045194;28;87986;-46
2022/06/11 11:55:53;;;;;;;;;;;18.60;74.40;;;;;;5044727;28;87931;-47
2022/06/11 11:58:22;;;;;;;;;;;18.60;74.60;;;;;;5045569;27;88390;-47
2022/06/11 12:01:04;;;;;;;;;;;18.60;74.50;;;;;;5044844;28;88336;-46
2022/06/11 12:03:47;;;;;;;;;;;18.60;74.70;;;;;;5045166;28;87125;-46
2022/06/11 12:06:15;;;;;;;;;;;18.50;74.40;;;;;;5045441;27;87181;-50
2022/06/11 12:08:42;;;;;;;;;;;18.60;74.50;;;;;;5044726;28;88322;-48
2022/06/11 12:11:18;;;;;;;;;;;18.50;74.90;;;;;;5044229;28;87112;-48
2022/06/11 12:13:45;;;;;;;;;;;18.50;74.20;;;;;;5048317;27;87412;-49
2022/06/11 12:16:25;;;;;;;;;;;18.40;74.60;;;;;;5045221;28;87129;-47
2022/06/11 12:18:53;;;;;;;;;;;18.50;75.40;;;;;;5043370;27;89093;-48
2022/06/11 12:21:24;;;;;;;;;;;18.50;75.10;;;;;;5043795;28;89128;-47
2022/06/11 12:23:58;;;;;;;;;;;18.50;75.30;;;;;;5044968;28;87032;-48
2022/06/11 12:26:28;;;;;;;;;;;18.60;75.20;;;;;;5044929;27;87368;-48
2022/06/11 12:28:56;;;;;;;;;;;18.60;75.10;;;;;;5044627;28;88490;-46
2022/06/11 12:31:22;;;;;;;;;;;18.50;75.40;;;;;;5045054;28;87121;-46
2022/06/11 12:33:50;;;;;;;;;;;18.60;75.40;;;;;;5044670;27;87880;-45
2022/06/11 12:36:32;;;;;;;;;;;18.60;75.20;;;;;;5047274;28;88324;-46
2022/06/11 12:39:17;;;;;;;;;;;18.60;75.00;;;;;;5045566;27;86577;-46
2022/06/11 12:42:04;;;;;;;;;;;18.70;75.20;;;;;;5044560;27;88130;-48
2022/06/11 12:44:36;;;;;;;;;;;18.70;75.50;;;;;;5044983;28;87458;-46
2022/06/11 12:47:11;;;;;;;;;;;18.70;75.20;;;;;;5043974;28;88067;-45
2022/06/11 12:49:42;;;;;;;;;;;18.70;75.20;;;;;;5044266;28;88090;-46
2022/06/11 12:52:17;;;;;;;;;;;18.70;75.20;;;;;;5044628;28;87154;-46
2022/06/11 12:55:01;;;;;;;;;;;18.60;75.20;;;;;;5044349;27;88860;-46
2022/06/11 12:57:45;;;;;;;;;;;18.60;75.40;;;;;;5044070;27;87449;-46
2022/06/11 13:00:33;;;;;;;;;;;18.60;75.20;;;;;;5047457;28;86884;-48
2022/06/11 13:03:12;;;;;;;;;;;18.60;75.40;;;;;;5023676;28;88102;-46
2022/06/11 13:06:07;;;;;;;;;;;18.60;75.80;;;;;;5045016;28;86293;-47
2022/06/11 13:08:41;;;;;;;;;;;18.60;75.50;;;;;;5044583;27;87157;-48
2022/06/11 13:11:07;;;;;;;;;;;18.60;75.50;;;;;;5043237;28;87981;-48
2022/06/11 13:13:45;;;;;;;;;;;18.60;75.70;;;;;;5043855;28;88004;-46
2022/06/11 13:16:10;;;;;;;;;;;18.50;75.50;;;;;;5044269;28;88375;-46
2022/06/11 13:18:39;;;;;;;;;;;18.60;75.50;;;;;;5043890;28;88007;-47
2022/06/11 13:21:26;;;;;;;;;;;18.60;75.60;;;;;;5046978;28;87141;-46
2022/06/11 13:23:58;;;;;;;;;;;18.60;75.60;;;;;;5043803;28;87918;-46
2022/06/11 13:26:33;;;;;;;;;;;18.60;75.40;;;;;;5044137;28;86997;-47
2022/06/11 13:28:59;;;;;;;;;;;18.60;75.60;;;;;;5043988;28;87500;-47
2022/06/11 13:31:24;;;;;;;;;;;18.60;75.50;;;;;;5043820;28;87372;-46
2022/06/11 13:34:08;;;;;;;;;;;18.60;76.10;;;;;;5043971;28;87047;-48
2022/06/11 13:36:52;;;;;;;;;;;18.60;75.70;;;;;;5044107;27;87361;-46
2022/06/11 13:39:22;;;;;;;;;;;18.60;75.60;;;;;;5042296;28;90466;-48
2022/06/11 13:42:06;;;;;;;;;;;18.60;75.60;;;;;;5043506;28;87130;-47
2022/06/11 13:44:45;;;;;;;;;;;18.60;75.40;;;;;;5046258;27;87493;-47
2022/06/11 13:47:19;;;;;;;;;;;18.60;75.50;;;;;;5043921;28;87196;-47
2022/06/11 13:49:45;;;;;;;;;;;18.60;75.40;;;;;;5043789;28;87386;-46
2022/06/11 13:52:15;;;;;;;;;;;18.60;75.50;;;;;;5043340;28;88012;-47
2022/06/11 13:57:31;;;;;;;;;;;18.60;75.40;;;;;;5044181;28;86737;-47
2022/06/11 14:00:07;;;;;;;;;;;18.60;75.30;;;;;;5043167;28;88019;-47
2022/06/11 14:02:33;;;;;;;;;;;18.60;75.20;;;;;;5043712;28;86968;-47
2022/06/11 14:05:00;;;;;;;;;;;18.60;75.20;;;;;;5043104;28;88340;-46
2022/06/11 14:07:27;;;;;;;;;;;18.60;75.20;;;;;;5045953;28;87243;-46
2022/06/11 14:10:24;;;;;;;;;;;18.60;75.30;;;;;;5043417;28;87498;-46
2022/06/11 14:12:55;;;;;;;;;;;18.60;75.20;;;;;;5042254;28;89214;-48
2022/06/11 14:15:29;;;;;;;;;;;18.70;75.40;;;;;;5043100;28;87022;-46
2022/06/11 14:18:13;;;;;;;;;;;18.70;75.30;;;;;;5043096;27;88849;-47
2022/06/11 14:20:40;;;;;;;;;;;18.70;75.20;;;;;;5042518;27;89218;-47
2022/06/11 14:23:25;;;;;;;;;;;18.80;75.30;;;;;;5043778;28;86442;-48
2022/06/11 14:25:52;;;;;;;;;;;18.70;75.20;;;;;;5035229;27;87206;-46
2022/06/11 14:28:18;;;;;;;;;;;18.70;75.10;;;;;;5042671;28;89418;-46
2022/06/11 14:30:49;;;;;;;;;;;18.70;75.40;;;;;;5045515;28;88122;-46
2022/06/11 14:33:18;;;;;;;;;;;18.70;75.20;;;;;;5042702;28;88028;-45